createdAt,value
2022-08-14T00:02:41.532Z,59.29
2022-08-14T00:07:42.006Z,59.44
2022-08-14T00:13:06.711Z,59.71
2022-08-14T00:18:10.961Z,59.85
2022-08-14T00:23:19.585Z,60.06
2022-08-14T00:28:29.064Z,60.11
2022-08-14T00:33:52.381Z,60.11
2022-08-14T00:38:43.124Z,60.05
2022-08-14T00:43:49.074Z,60.25
2022-08-14T00:48:54.623Z,60.28
2022-08-14T00:54:03.215Z,60.03
2022-08-14T00:59:11.602Z,60.07
2022-08-14T01:04:38.237Z,60.51
2022-08-14T01:09:26.758Z,60.80
2022-08-14T01:14:35.647Z,60.99
2022-08-14T01:19:59.255Z,61.01
2022-08-14T01:25:07.833Z,61.31
2022-08-14T01:30:20.941Z,61.50
2022-08-14T01:36:01.437Z,61.79
2022-08-14T01:40:33.206Z,62.00
2022-08-14T01:45:40.595Z,62.19
2022-08-14T01:50:45.906Z,62.19
2022-08-14T01:55:51.774Z,62.37
2022-08-14T02:00:58.880Z,62.59
2022-08-14T02:06:31.941Z,62.61
2022-08-14T02:11:25.026Z,63.06
2022-08-14T02:16:35.794Z,63.23
2022-08-14T02:21:47.173Z,63.23
2022-08-14T02:28:18.608Z,63.34
2022-08-14T02:32:02.922Z,63.40
2022-08-14T02:37:11.185Z,63.55
2022-08-14T02:42:23.740Z,63.75
2022-08-14T02:47:32.008Z,64.11
2022-08-14T02:52:55.986Z,64.06
2022-08-14T02:57:45.066Z,64.62
2022-08-14T03:02:58.702Z,64.60
2022-08-14T03:08:16.032Z,64.92
2022-08-14T03:13:22.079Z,64.83
2022-08-14T03:18:31.247Z,65.25
2022-08-14T03:23:38.413Z,65.10
2022-08-14T03:28:47.890Z,65.56
2022-08-14T03:33:54.652Z,65.66
2022-08-14T03:39:15.296Z,65.83
2022-08-14T03:45:27.290Z,65.83
2022-08-14T03:49:28.144Z,65.89
2022-08-14T03:54:24.702Z,66.17
2022-08-14T03:59:31.085Z,66.44
2022-08-14T04:04:38.315Z,66.69
2022-08-14T04:09:45.178Z,66.73
2022-08-14T04:14:52.503Z,66.71
2022-08-14T04:20:00.513Z,66.39
2022-08-14T04:25:07.936Z,67.05
2022-08-14T04:30:32.897Z,67.17
2022-08-14T04:35:23.682Z,67.10
2022-08-14T04:40:47.136Z,67.03
2022-08-14T04:45:53.209Z,67.91
2022-08-14T04:50:58.923Z,68.10
2022-08-14T04:56:29.956Z,68.21
2022-08-14T05:01:19.415Z,67.93
2022-08-14T05:06:38.293Z,67.83
2022-08-14T05:11:36.462Z,67.90
2022-08-14T05:16:40.868Z,67.54
2022-08-14T05:21:59.714Z,67.62
2022-08-14T05:26:54.453Z,67.91
2022-08-14T05:32:02.648Z,67.91
2022-08-14T05:37:08.441Z,64.73
2022-08-14T05:42:21.537Z,66.37
2022-08-14T05:47:24.082Z,65.79
2022-08-14T05:52:39.353Z,65.62
2022-08-14T05:57:49.740Z,65.09
2022-08-14T06:02:56.426Z,64.78
2022-08-14T06:08:08.636Z,64.17
2022-08-14T06:13:12.841Z,63.78
2022-08-14T06:18:18.831Z,64.12
2022-08-14T06:23:24.418Z,63.46
2022-08-14T06:28:30.154Z,63.60
2022-08-14T06:35:04.236Z,63.34
2022-08-14T06:38:42.936Z,63.06
2022-08-14T06:43:49.236Z,62.85
2022-08-14T06:48:54.784Z,62.20
2022-08-14T06:54:01.068Z,61.95
2022-08-14T06:59:07.244Z,61.23
2022-08-14T07:04:32.604Z,61.25
2022-08-14T07:09:44.371Z,60.56
2022-08-14T07:14:46.194Z,60.63
2022-08-14T07:19:52.983Z,59.94
2022-08-14T07:24:58.519Z,59.51
2022-08-14T07:30:06.395Z,59.00
2022-08-14T07:35:13.678Z,57.78
2022-08-14T07:40:27.355Z,58.19
2022-08-14T07:45:26.413Z,57.52
2022-08-14T07:50:37.294Z,57.27
2022-08-14T07:55:43.897Z,56.47
2022-08-14T08:00:51.316Z,56.04
2022-08-14T08:05:58.456Z,55.44
2022-08-14T08:11:08.479Z,54.98
2022-08-14T08:16:12.045Z,54.67
2022-08-14T08:21:18.095Z,54.30
2022-08-14T08:26:26.624Z,54.10
2022-08-14T08:31:35.137Z,53.46
2022-08-14T08:36:46.630Z,53.12
2022-08-14T08:41:53.838Z,52.62
2022-08-14T08:47:01.353Z,51.80
2022-08-14T08:52:15.394Z,51.64
2022-08-14T08:57:16.060Z,51.08
2022-08-14T09:02:26.036Z,50.33
2022-08-14T09:07:31.486Z,50.07
2022-08-14T09:12:37.098Z,50.11
2022-08-14T09:17:44.396Z,49.97
2022-08-14T09:22:52.960Z,49.92
2022-08-14T09:28:00.068Z,49.50
2022-08-14T09:33:14.621Z,49.48
2022-08-14T09:38:30.158Z,49.12
2022-08-14T09:43:41.461Z,48.71
2022-08-14T09:48:49.683Z,48.25
2022-08-14T09:54:06.116Z,47.52
2022-08-14T09:59:16.067Z,47.43
2022-08-14T10:04:34.942Z,46.17
2022-08-14T10:09:37.748Z,45.50
2022-08-14T10:14:44.958Z,44.66
2022-08-14T10:19:52.152Z,43.40
2022-08-14T10:24:59.897Z,42.36
2022-08-14T10:30:12.213Z,41.76
2022-08-14T10:35:17.436Z,40.90
2022-08-14T10:40:43.788Z,40.49
2022-08-14T10:45:42.150Z,40.14
2022-08-14T10:50:48.601Z,39.27
2022-08-14T10:55:57.272Z,38.84
2022-08-14T11:01:05.727Z,38.39
2022-08-14T11:06:21.074Z,38.00
2022-08-14T11:11:28.610Z,37.52
2022-08-14T11:16:38.222Z,36.66
2022-08-14T11:21:45.662Z,36.22
2022-08-14T11:26:52.988Z,36.19
2022-08-14T11:32:00.476Z,35.77
2022-08-14T11:37:19.335Z,35.54
2022-08-14T11:42:57.236Z,35.27
2022-08-14T11:47:43.958Z,35.11
2022-08-14T11:52:46.100Z,34.50
2022-08-14T11:58:06.044Z,34.26
2022-08-14T12:03:14.794Z,34.33
2022-08-14T12:08:24.636Z,33.63
2022-08-14T12:13:31.751Z,33.51
2022-08-14T12:18:42.060Z,33.30
2022-08-14T12:23:52.065Z,33.08
2022-08-14T12:29:13.149Z,32.88
2022-08-14T12:34:24.095Z,32.98
2022-08-14T12:39:27.689Z,32.79
2022-08-14T12:44:38.459Z,32.58
2022-08-14T12:49:52.696Z,32.73
2022-08-14T12:55:08.188Z,32.09
2022-08-14T13:00:23.235Z,31.88
2022-08-14T13:05:30.690Z,31.42
2022-08-14T13:10:47.853Z,31.58
2022-08-14T13:15:55.972Z,30.70
2022-08-14T13:21:01.787Z,30.67
2022-08-14T13:26:08.301Z,30.83
2022-08-14T13:31:16.336Z,30.94
2022-08-14T13:36:23.874Z,30.04
2022-08-14T13:41:34.687Z,30.31
2022-08-14T13:46:37.686Z,30.04
2022-08-14T13:51:47.425Z,29.66
2022-08-14T13:56:55.514Z,29.92
2022-08-14T14:02:07.996Z,29.59
2022-08-14T14:07:16.266Z,28.79
2022-08-14T14:12:49.206Z,29.76
2022-08-14T14:17:31.669Z,28.81
2022-08-14T14:23:01.246Z,29.13
2022-08-14T14:27:49.130Z,28.63
2022-08-14T14:33:04.279Z,28.37
2022-08-14T14:38:09.115Z,28.16
2022-08-14T14:43:17.750Z,27.25
2022-08-14T14:48:54.501Z,28.02
2022-08-14T14:54:02.809Z,28.04
2022-08-14T14:59:10.509Z,28.37
2022-08-14T15:04:20.651Z,27.58
2022-08-14T15:09:24.377Z,27.83
2022-08-14T15:14:54.808Z,28.50
2022-08-14T15:19:37.970Z,28.16
2022-08-14T15:24:46.581Z,28.98
2022-08-14T15:29:52.092Z,28.95
2022-08-14T15:34:58.229Z,28.93
2022-08-14T15:40:05.641Z,28.92
2022-08-14T15:45:12.802Z,28.74
2022-08-14T15:50:20.069Z,29.17
2022-08-14T15:55:25.733Z,29.03
2022-08-14T16:00:55.255Z,28.79
2022-08-14T16:06:01.235Z,28.90
2022-08-14T16:11:09.313Z,29.83
2022-08-14T16:16:35.036Z,30.45
2022-08-14T16:22:02.666Z,31.38
2022-08-14T16:26:51.771Z,32.14
2022-08-14T16:31:59.218Z,32.64
2022-08-14T16:37:05.027Z,33.44
2022-08-14T16:42:39.027Z,33.87
2022-08-14T16:47:22.433Z,34.43
2022-08-14T16:52:54.593Z,34.28
2022-08-14T16:57:35.396Z,34.72
2022-08-14T17:02:43.553Z,34.56
2022-08-14T17:08:31.753Z,34.79
2022-08-14T17:13:47.403Z,35.09
2022-08-14T17:18:41.495Z,35.26
2022-08-14T17:23:47.120Z,35.57
2022-08-14T17:28:58.458Z,35.58
2022-08-14T17:34:04.414Z,35.80
2022-08-14T17:39:16.385Z,36.50
2022-08-14T17:44:34.483Z,37.36
2022-08-14T17:49:40.320Z,37.34
2022-08-14T17:54:52.957Z,38.43
2022-08-14T17:59:57.104Z,39.07
2022-08-14T18:05:03.486Z,39.60
2022-08-14T18:10:51.988Z,40.48
2022-08-14T18:15:18.310Z,41.06
2022-08-14T18:21:41.708Z,41.81
2022-08-14T18:25:36.995Z,42.13
2022-08-14T18:30:58.803Z,42.94
2022-08-14T18:35:59.870Z,43.12
2022-08-14T18:41:04.278Z,43.58
2022-08-14T18:47:00.032Z,43.52
2022-08-14T18:51:22.196Z,44.11
2022-08-14T18:56:58.008Z,43.92
2022-08-14T19:02:30.459Z,44.44
2022-08-14T19:07:36.942Z,44.69
2022-08-14T19:12:57.287Z,44.79
2022-08-14T19:18:25.927Z,45.00
2022-08-14T19:23:42.330Z,45.16
2022-08-14T19:28:50.560Z,45.38
2022-08-14T19:33:59.228Z,45.66
2022-08-14T19:39:12.117Z,46.24
2022-08-14T19:44:20.631Z,46.69
2022-08-14T19:50:25.026Z,46.70
2022-08-14T19:54:47.253Z,47.10
2022-08-14T20:00:06.268Z,47.38
2022-08-14T20:05:16.269Z,47.76
2022-08-14T20:11:08.346Z,48.21
2022-08-14T20:15:47.681Z,48.47
2022-08-14T20:20:50.414Z,48.27
2022-08-14T20:25:58.597Z,48.73
2022-08-14T20:31:19.641Z,48.50
2022-08-14T20:36:31.232Z,48.44
2022-08-14T20:41:39.738Z,48.44
2022-08-14T20:46:46.284Z,48.79
2022-08-14T20:51:59.592Z,49.68
2022-08-14T20:57:14.137Z,50.45
2022-08-14T21:02:46.252Z,50.83
2022-08-14T21:07:42.036Z,51.16
2022-08-14T21:13:26.521Z,51.51
2022-08-14T21:17:56.547Z,51.92
2022-08-14T21:23:04.552Z,52.32
2022-08-14T21:28:29.856Z,52.50
2022-08-14T21:33:22.819Z,52.70
2022-08-14T21:38:33.589Z,53.05
2022-08-14T21:43:36.862Z,53.49
2022-08-14T21:48:44.375Z,53.86
2022-08-14T21:53:58.707Z,54.06
2022-08-14T21:58:59.906Z,54.34
2022-08-14T22:04:32.621Z,54.51
2022-08-14T22:09:16.764Z,54.74
2022-08-14T22:14:26.126Z,55.08
2022-08-14T22:19:34.713Z,55.38
2022-08-14T22:24:38.806Z,55.59
2022-08-14T22:29:46.090Z,55.78
2022-08-14T22:34:53.295Z,55.92
2022-08-14T22:40:48.364Z,56.08
2022-08-14T22:45:08.878Z,56.36
2022-08-14T22:50:32.070Z,56.55
2022-08-14T22:55:22.757Z,56.72
2022-08-14T23:00:31.659Z,57.10
2022-08-14T23:05:39.604Z,57.17
2022-08-14T23:10:44.565Z,57.38
2022-08-14T23:15:52.142Z,57.58
2022-08-14T23:20:57.912Z,57.99
2022-08-14T23:26:47.323Z,58.27
2022-08-14T23:31:35.031Z,58.45
2022-08-14T23:36:36.909Z,58.70
2022-08-14T23:41:46.931Z,58.89
2022-08-14T23:46:47.774Z,59.03
2022-08-14T23:52:51.127Z,59.46
2022-08-14T23:57:03.742Z,59.71
